sensor_id;sensor_type;location;lat;lon;timestamp;pressure;altitude;pressure_sealevel;temperature;humidity
740;BME280;354;42.694;23.336;2024-02-28T00:01:50;95618.25;;;9.24;100.00
740;BME280;354;42.694;23.336;2024-02-28T00:04:16;95629.69;;;9.16;100.00
740;BME280;354;42.694;23.336;2024-02-28T00:06:42;95617.00;;;9.20;100.00
740;BME280;354;42.694;23.336;2024-02-28T00:09:07;95629.75;;;9.23;100.00
740;BME280;354;42.694;23.336;2024-02-28T00:11:32;95606.78;;;9.04;100.00
740;BME280;354;42.694;23.336;2024-02-28T00:13:58;95623.22;;;9.12;100.00
740;BME280;354;42.694;23.336;2024-02-28T00:16:25;95628.16;;;9.01;100.00
740;BME280;354;42.694;23.336;2024-02-28T00:18:50;95634.03;;;9.03;100.00
740;BME280;354;42.694;23.336;2024-02-28T00:21:16;95630.84;;;9.07;100.00
740;BME280;354;42.694;23.336;2024-02-28T00:23:42;95626.94;;;8.96;100.00
740;BME280;354;42.694;23.336;2024-02-28T00:26:07;95622.91;;;9.01;100.00
740;BME280;354;42.694;23.336;2024-02-28T00:28:35;95632.00;;;8.98;100.00
740;BME280;354;42.694;23.336;2024-02-28T00:31:01;95635.75;;;8.89;100.00
740;BME280;354;42.694;23.336;2024-02-28T00:33:27;95626.97;;;8.75;100.00
740;BME280;354;42.694;23.336;2024-02-28T00:35:52;95626.56;;;8.78;100.00
740;BME280;354;42.694;23.336;2024-02-28T00:38:19;95618.16;;;8.61;100.00
740;BME280;354;42.694;23.336;2024-02-28T00:40:44;95621.25;;;8.65;100.00
740;BME280;354;42.694;23.336;2024-02-28T00:43:09;95622.31;;;8.49;100.00
740;BME280;354;42.694;23.336;2024-02-28T00:45:35;95625.88;;;8.41;100.00
740;BME280;354;42.694;23.336;2024-02-28T00:48:00;95622.91;;;8.30;100.00
740;BME280;354;42.694;23.336;2024-02-28T00:50:26;95619.53;;;8.14;100.00
740;BME280;354;42.694;23.336;2024-02-28T00:52:51;95617.72;;;8.15;100.00
740;BME280;354;42.694;23.336;2024-02-28T00:55:16;95630.00;;;8.14;100.00
740;BME280;354;42.694;23.336;2024-02-28T00:57:44;95623.56;;;8.17;100.00
740;BME280;354;42.694;23.336;2024-02-28T01:00:10;95624.00;;;7.99;100.00
740;BME280;354;42.694;23.336;2024-02-28T01:02:35;95631.16;;;7.90;100.00
740;BME280;354;42.694;23.336;2024-02-28T01:05:00;95625.81;;;7.99;100.00
740;BME280;354;42.694;23.336;2024-02-28T01:07:26;95633.66;;;7.99;100.00
740;BME280;354;42.694;23.336;2024-02-28T01:09:51;95636.91;;;8.01;100.00
740;BME280;354;42.694;23.336;2024-02-28T01:12:17;95635.81;;;8.10;100.00
740;BME280;354;42.694;23.336;2024-02-28T01:14:42;95632.78;;;8.13;100.00
740;BME280;354;42.694;23.336;2024-02-28T01:17:08;95598.28;;;7.88;100.00
740;BME280;354;42.694;23.336;2024-02-28T01:19:33;95640.25;;;8.09;100.00
740;BME280;354;42.694;23.336;2024-02-28T01:21:58;95643.94;;;8.00;100.00
740;BME280;354;42.694;23.336;2024-02-28T01:24:24;95643.28;;;7.91;100.00
740;BME280;354;42.694;23.336;2024-02-28T01:26:49;95649.38;;;7.99;100.00
740;BME280;354;42.694;23.336;2024-02-28T01:29:15;95640.97;;;8.03;100.00
740;BME280;354;42.694;23.336;2024-02-28T01:31:40;95645.41;;;8.03;100.00
740;BME280;354;42.694;23.336;2024-02-28T01:34:05;95639.25;;;7.96;100.00
740;BME280;354;42.694;23.336;2024-02-28T01:36:31;95610.88;;;7.63;100.00
740;BME280;354;42.694;23.336;2024-02-28T01:38:56;95647.44;;;7.71;100.00
740;BME280;354;42.694;23.336;2024-02-28T01:41:21;95620.00;;;7.52;100.00
740;BME280;354;42.694;23.336;2024-02-28T01:43:47;95643.41;;;7.54;100.00
740;BME280;354;42.694;23.336;2024-02-28T01:46:28;95652.59;;;7.50;100.00
740;BME280;354;42.694;23.336;2024-02-28T01:48:55;95648.56;;;7.47;100.00
740;BME280;354;42.694;23.336;2024-02-28T01:51:22;95649.91;;;7.43;100.00
740;BME280;354;42.694;23.336;2024-02-28T01:53:50;95650.72;;;7.44;100.00
740;BME280;354;42.694;23.336;2024-02-28T01:56:16;95656.69;;;7.37;100.00
740;BME280;354;42.694;23.336;2024-02-28T01:58:47;95654.41;;;7.34;100.00
740;BME280;354;42.694;23.336;2024-02-28T02:01:16;95659.28;;;7.37;100.00
740;BME280;354;42.694;23.336;2024-02-28T02:03:45;95659.75;;;7.26;100.00
740;BME280;354;42.694;23.336;2024-02-28T02:06:11;95660.63;;;7.33;100.00
740;BME280;354;42.694;23.336;2024-02-28T02:08:37;95650.38;;;7.32;100.00
740;BME280;354;42.694;23.336;2024-02-28T02:11:04;95648.72;;;7.16;100.00
740;BME280;354;42.694;23.336;2024-02-28T02:13:30;95656.34;;;7.03;100.00
740;BME280;354;42.694;23.336;2024-02-28T02:15:55;95632.06;;;6.79;100.00
740;BME280;354;42.694;23.336;2024-02-28T02:18:21;95659.50;;;6.83;100.00
740;BME280;354;42.694;23.336;2024-02-28T02:20:51;95656.41;;;6.80;100.00
740;BME280;354;42.694;23.336;2024-02-28T02:23:19;95658.97;;;7.03;100.00
740;BME280;354;42.694;23.336;2024-02-28T02:25:48;95662.28;;;6.82;100.00
740;BME280;354;42.694;23.336;2024-02-28T02:28:14;95651.69;;;6.98;100.00
740;BME280;354;42.694;23.336;2024-02-28T02:30:40;95647.41;;;6.97;100.00
740;BME280;354;42.694;23.336;2024-02-28T02:33:06;95651.41;;;7.08;100.00
740;BME280;354;42.694;23.336;2024-02-28T02:35:33;95649.34;;;7.03;100.00
740;BME280;354;42.694;23.336;2024-02-28T02:37:58;95648.94;;;6.92;100.00
740;BME280;354;42.694;23.336;2024-02-28T02:40:24;95655.81;;;6.93;100.00
740;BME280;354;42.694;23.336;2024-02-28T02:42:49;95665.44;;;6.92;100.00
740;BME280;354;42.694;23.336;2024-02-28T02:45:16;95663.66;;;6.93;100.00
740;BME280;354;42.694;23.336;2024-02-28T02:47:41;95662.28;;;6.82;100.00
740;BME280;354;42.694;23.336;2024-02-28T02:50:09;95670.28;;;6.80;100.00
740;BME280;354;42.694;23.336;2024-02-28T02:52:34;95666.44;;;6.76;100.00
740;BME280;354;42.694;23.336;2024-02-28T02:55:00;95672.81;;;6.74;100.00
740;BME280;354;42.694;23.336;2024-02-28T02:57:25;95662.16;;;6.75;100.00
740;BME280;354;42.694;23.336;2024-02-28T02:59:50;95667.09;;;6.70;100.00
740;BME280;354;42.694;23.336;2024-02-28T03:02:16;95659.72;;;6.74;100.00
740;BME280;354;42.694;23.336;2024-02-28T03:04:41;95662.16;;;6.75;100.00
740;BME280;354;42.694;23.336;2024-02-28T03:07:07;95662.53;;;6.72;100.00
740;BME280;354;42.694;23.336;2024-02-28T03:09:32;95650.78;;;6.68;100.00
740;BME280;354;42.694;23.336;2024-02-28T03:11:59;95658.28;;;6.71;100.00
740;BME280;354;42.694;23.336;2024-02-28T03:14:25;95658.06;;;6.58;100.00
740;BME280;354;42.694;23.336;2024-02-28T03:16:52;95652.25;;;6.48;100.00
740;BME280;354;42.694;23.336;2024-02-28T03:19:18;95666.59;;;6.52;100.00
740;BME280;354;42.694;23.336;2024-02-28T03:21:43;95667.19;;;6.62;100.00
740;BME280;354;42.694;23.336;2024-02-28T03:24:09;95659.72;;;6.74;100.00
740;BME280;354;42.694;23.336;2024-02-28T03:26:34;95669.31;;;6.81;100.00
740;BME280;354;42.694;23.336;2024-02-28T03:29:00;95665.16;;;6.72;100.00
740;BME280;354;42.694;23.336;2024-02-28T03:31:26;95669.47;;;6.65;100.00
740;BME280;354;42.694;23.336;2024-02-28T03:33:51;95667.06;;;6.55;100.00
740;BME280;354;42.694;23.336;2024-02-28T03:36:16;95669.16;;;6.60;100.00
740;BME280;354;42.694;23.336;2024-02-28T03:38:42;95667.88;;;6.56;100.00
740;BME280;354;42.694;23.336;2024-02-28T03:41:07;95671.84;;;6.52;100.00
740;BME280;354;42.694;23.336;2024-02-28T03:43:33;95681.66;;;6.50;100.00
740;BME280;354;42.694;23.336;2024-02-28T03:45:58;95685.56;;;6.54;100.00
740;BME280;354;42.694;23.336;2024-02-28T03:48:23;95680.31;;;6.54;100.00
740;BME280;354;42.694;23.336;2024-02-28T03:50:49;95685.19;;;6.57;100.00
740;BME280;354;42.694;23.336;2024-02-28T03:53:14;95688.38;;;6.67;100.00
740;BME280;354;42.694;23.336;2024-02-28T03:55:39;95681.16;;;6.69;100.00
740;BME280;354;42.694;23.336;2024-02-28T03:58:05;95671.41;;;6.63;100.00
740;BME280;354;42.694;23.336;2024-02-28T04:00:34;95686.00;;;6.57;100.00
740;BME280;354;42.694;23.336;2024-02-28T04:02:59;95677.13;;;6.44;100.00
740;BME280;354;42.694;23.336;2024-02-28T04:05:25;95675.47;;;6.43;100.00
740;BME280;354;42.694;23.336;2024-02-28T04:07:50;95675.47;;;6.43;100.00
740;BME280;354;42.694;23.336;2024-02-28T04:10:15;95678.34;;;6.33;100.00
740;BME280;354;42.694;23.336;2024-02-28T04:12:43;95672.59;;;6.38;100.00
740;BME280;354;42.694;23.336;2024-02-28T04:15:10;95679.50;;;6.53;100.00
740;BME280;354;42.694;23.336;2024-02-28T04:17:37;95680.38;;;6.46;100.00
740;BME280;354;42.694;23.336;2024-02-28T04:20:02;95672.34;;;6.47;100.00
740;BME280;354;42.694;23.336;2024-02-28T04:22:30;95670.84;;;6.53;100.00
740;BME280;354;42.694;23.336;2024-02-28T04:24:56;95669.00;;;6.62;100.00
740;BME280;354;42.694;23.336;2024-02-28T04:27:21;95670.84;;;6.53;100.00
740;BME280;354;42.694;23.336;2024-02-28T04:29:47;95667.53;;;6.59;100.00
740;BME280;354;42.694;23.336;2024-02-28T04:32:12;95676.59;;;6.71;100.00
740;BME280;354;42.694;23.336;2024-02-28T04:34:38;95668.50;;;6.58;100.00
740;BME280;354;42.694;23.336;2024-02-28T04:37:03;95663.56;;;6.63;100.00
740;BME280;354;42.694;23.336;2024-02-28T04:39:29;95643.84;;;6.60;100.00
740;BME280;354;42.694;23.336;2024-02-28T04:41:54;95681.22;;;6.84;100.00
740;BME280;354;42.694;23.336;2024-02-28T04:44:20;95685.00;;;6.81;100.00
740;BME280;354;42.694;23.336;2024-02-28T04:46:45;95683.38;;;6.80;100.00
740;BME280;354;42.694;23.336;2024-02-28T04:49:10;95653.13;;;6.63;100.00
740;BME280;354;42.694;23.336;2024-02-28T04:51:36;95682.66;;;6.86;100.00
740;BME280;354;42.694;23.336;2024-02-28T04:54:01;95680.22;;;6.85;100.00
740;BME280;354;42.694;23.336;2024-02-28T04:56:27;95682.31;;;6.90;100.00
740;BME280;354;42.694;23.336;2024-02-28T04:58:52;95685.47;;;6.85;100.00
740;BME280;354;42.694;23.336;2024-02-28T05:01:17;95685.47;;;6.85;100.00
740;BME280;354;42.694;23.336;2024-02-28T05:03:43;95690.69;;;6.85;100.00
740;BME280;354;42.694;23.336;2024-02-28T05:06:08;95688.84;;;6.71;100.00
740;BME280;354;42.694;23.336;2024-02-28T05:08:37;95699.22;;;6.79;100.00
740;BME280;354;42.694;23.336;2024-02-28T05:11:02;95699.41;;;6.77;100.00
740;BME280;354;42.694;23.336;2024-02-28T05:13:28;95673.84;;;6.65;100.00
740;BME280;354;42.694;23.336;2024-02-28T05:15:53;95705.22;;;6.88;100.00
740;BME280;354;42.694;23.336;2024-02-28T05:18:19;95702.66;;;6.79;100.00
740;BME280;354;42.694;23.336;2024-02-28T05:20:44;95670.03;;;6.52;100.00
740;BME280;354;42.694;23.336;2024-02-28T05:23:10;95714.75;;;6.80;100.00
740;BME280;354;42.694;23.336;2024-02-28T05:25:35;95718.88;;;6.75;100.00
740;BME280;354;42.694;23.336;2024-02-28T05:28:00;95724.47;;;6.72;100.00
740;BME280;354;42.694;23.336;2024-02-28T05:30:26;95724.78;;;6.69;100.00
740;BME280;354;42.694;23.336;2024-02-28T05:32:51;95723.66;;;6.71;100.00
740;BME280;354;42.694;23.336;2024-02-28T05:35:17;95724.56;;;6.78;100.00
740;BME280;354;42.694;23.336;2024-02-28T05:37:44;95724.06;;;6.83;100.00
740;BME280;354;42.694;23.336;2024-02-28T05:40:09;95727.06;;;6.95;100.00
740;BME280;354;42.694;23.336;2024-02-28T05:42:37;95708.78;;;7.09;100.00
740;BME280;354;42.694;23.336;2024-02-28T05:45:03;95747.44;;;7.22;100.00
740;BME280;354;42.694;23.336;2024-02-28T05:47:29;95738.53;;;7.31;100.00
740;BME280;354;42.694;23.336;2024-02-28T05:49:55;95754.06;;;7.48;100.00
740;BME280;354;42.694;23.336;2024-02-28T05:52:21;95734.47;;;7.44;100.00
740;BME280;354;42.694;23.336;2024-02-28T05:54:47;95754.16;;;7.69;100.00
740;BME280;354;42.694;23.336;2024-02-28T05:57:13;95751.38;;;7.71;100.00
740;BME280;354;42.694;23.336;2024-02-28T05:59:38;95752.09;;;7.79;100.00
740;BME280;354;42.694;23.336;2024-02-28T06:02:04;95756.97;;;7.82;100.00
740;BME280;354;42.694;23.336;2024-02-28T06:04:29;95755.44;;;7.88;100.00
740;BME280;354;42.694;23.336;2024-02-28T06:06:55;95754.63;;;8.02;100.00
740;BME280;354;42.694;23.336;2024-02-28T06:09:21;95750.25;;;8.24;100.00
740;BME280;354;42.694;23.336;2024-02-28T06:11:46;95751.75;;;8.33;100.00
740;BME280;354;42.694;23.336;2024-02-28T06:14:12;95762.91;;;8.35;100.00
740;BME280;354;42.694;23.336;2024-02-28T06:16:37;95762.53;;;8.38;100.00
740;BME280;354;42.694;23.336;2024-02-28T06:19:03;95766.44;;;8.42;100.00
740;BME280;354;42.694;23.336;2024-02-28T06:21:28;95764.94;;;8.55;100.00
740;BME280;354;42.694;23.336;2024-02-28T06:23:54;95778.31;;;8.60;100.00
740;BME280;354;42.694;23.336;2024-02-28T06:26:20;95772.47;;;8.58;100.00
740;BME280;354;42.694;23.336;2024-02-28T06:28:46;95772.22;;;8.74;100.00
740;BME280;354;42.694;23.336;2024-02-28T06:31:13;95766.25;;;8.80;100.00
740;BME280;354;42.694;23.336;2024-02-28T06:33:39;95775.22;;;8.92;100.00
740;BME280;354;42.694;23.336;2024-02-28T06:36:04;95777.25;;;8.90;100.00
740;BME280;354;42.694;23.336;2024-02-28T06:38:30;95767.06;;;9.02;100.00
740;BME280;354;42.694;23.336;2024-02-28T06:40:55;95778.41;;;9.31;100.00
740;BME280;354;42.694;23.336;2024-02-28T06:43:20;95767.31;;;9.57;100.00
740;BME280;354;42.694;23.336;2024-02-28T06:45:47;95773.72;;;9.54;100.00
740;BME280;354;42.694;23.336;2024-02-28T06:48:12;95749.69;;;9.50;100.00
740;BME280;354;42.694;23.336;2024-02-28T06:50:37;95772.72;;;9.83;100.00
740;BME280;354;42.694;23.336;2024-02-28T06:53:03;95766.75;;;9.96;100.00
740;BME280;354;42.694;23.336;2024-02-28T06:55:29;95774.69;;;10.09;100.00
740;BME280;354;42.694;23.336;2024-02-28T06:57:54;95781.56;;;10.10;100.00
740;BME280;354;42.694;23.336;2024-02-28T07:00:19;95779.44;;;10.27;100.00
740;BME280;354;42.694;23.336;2024-02-28T07:02:45;95778.50;;;10.35;100.00
740;BME280;354;42.694;23.336;2024-02-28T07:05:10;95782.75;;;10.42;100.00
740;BME280;354;42.694;23.336;2024-02-28T07:07:36;95768.59;;;10.43;100.00
740;BME280;354;42.694;23.336;2024-02-28T07:10:05;95771.44;;;10.48;100.00
740;BME280;354;42.694;23.336;2024-02-28T07:12:30;95772.09;;;10.50;100.00
740;BME280;354;42.694;23.336;2024-02-28T07:14:56;95777.13;;;10.52;100.00
740;BME280;354;42.694;23.336;2024-02-28T07:17:21;95774.50;;;10.52;100.00
740;BME280;354;42.694;23.336;2024-02-28T07:19:47;95771.31;;;10.63;100.00
740;BME280;354;42.694;23.336;2024-02-28T07:22:13;95719.63;;;10.29;100.00
740;BME280;354;42.694;23.336;2024-02-28T07:24:38;95772.34;;;10.75;100.00
740;BME280;354;42.694;23.336;2024-02-28T07:27:04;95746.22;;;10.61;100.00
740;BME280;354;42.694;23.336;2024-02-28T07:29:29;95776.81;;;10.75;100.00
740;BME280;354;42.694;23.336;2024-02-28T07:31:55;95775.97;;;10.68;100.00
740;BME280;354;42.694;23.336;2024-02-28T07:34:20;95784.22;;;10.51;100.00
740;BME280;354;42.694;23.336;2024-02-28T07:36:45;95778.53;;;10.48;100.00
740;BME280;354;42.694;23.336;2024-02-28T07:39:11;95781.81;;;10.57;100.00
740;BME280;354;42.694;23.336;2024-02-28T07:41:39;95778.38;;;10.63;100.00
740;BME280;354;42.694;23.336;2024-02-28T07:44:04;95748.84;;;10.61;100.00
740;BME280;354;42.694;23.336;2024-02-28T07:46:30;95772.34;;;10.82;100.00
740;BME280;354;42.694;23.336;2024-02-28T07:48:55;95768.53;;;10.91;100.00
740;BME280;354;42.694;23.336;2024-02-28T07:51:21;95768.16;;;11.01;100.00
740;BME280;354;42.694;23.336;2024-02-28T07:53:47;95771.22;;;11.11;100.00
740;BME280;354;42.694;23.336;2024-02-28T07:56:16;95763.91;;;11.20;100.00
740;BME280;354;42.694;23.336;2024-02-28T07:58:42;95774.25;;;11.08;100.00
740;BME280;354;42.694;23.336;2024-02-28T08:01:08;95756.44;;;11.17;100.00
740;BME280;354;42.694;23.336;2024-02-28T08:03:33;95751.16;;;11.30;100.00
740;BME280;354;42.694;23.336;2024-02-28T08:05:59;95773.25;;;11.55;100.00
740;BME280;354;42.694;23.336;2024-02-28T08:08:24;95774.66;;;11.91;100.00
740;BME280;354;42.694;23.336;2024-02-28T08:10:49;95751.09;;;12.09;100.00
740;BME280;354;42.694;23.336;2024-02-28T08:13:17;95769.88;;;12.39;100.00
740;BME280;354;42.694;23.336;2024-02-28T08:15:42;95746.13;;;12.39;100.00
740;BME280;354;42.694;23.336;2024-02-28T08:18:07;95764.38;;;12.86;100.00
740;BME280;354;42.694;23.336;2024-02-28T08:20:33;95769.75;;;13.04;100.00
740;BME280;354;42.694;23.336;2024-02-28T08:22:58;95763.78;;;13.15;100.00
740;BME280;354;42.694;23.336;2024-02-28T08:25:25;95758.97;;;13.06;100.00
740;BME280;354;42.694;23.336;2024-02-28T08:27:50;95763.88;;;13.02;100.00
740;BME280;354;42.694;23.336;2024-02-28T08:30:15;95763.28;;;13.00;100.00
740;BME280;354;42.694;23.336;2024-02-28T08:32:41;95766.44;;;13.15;100.00
740;BME280;354;42.694;23.336;2024-02-28T08:35:08;95770.06;;;13.21;100.00
740;BME280;354;42.694;23.336;2024-02-28T08:37:33;95761.47;;;13.32;100.00
740;BME280;354;42.694;23.336;2024-02-28T08:39:59;95769.50;;;13.44;100.00
740;BME280;354;42.694;23.336;2024-02-28T08:42:25;95744.53;;;13.40;100.00
740;BME280;354;42.694;23.336;2024-02-28T08:44:50;95763.03;;;13.65;100.00
740;BME280;354;42.694;23.336;2024-02-28T08:47:16;95760.53;;;13.70;100.00
740;BME280;354;42.694;23.336;2024-02-28T08:49:41;95756.50;;;13.67;100.00
740;BME280;354;42.694;23.336;2024-02-28T08:52:07;95733.41;;;13.56;100.00
740;BME280;354;42.694;23.336;2024-02-28T08:54:32;95751.16;;;13.49;100.00
740;BME280;354;42.694;23.336;2024-02-28T08:56:58;95738.84;;;13.61;100.00
740;BME280;354;42.694;23.336;2024-02-28T08:59:24;95745.63;;;13.57;100.00
740;BME280;354;42.694;23.336;2024-02-28T09:01:50;95750.84;;;13.39;100.00
740;BME280;354;42.694;23.336;2024-02-28T09:04:16;95738.38;;;13.21;100.00
740;BME280;354;42.694;23.336;2024-02-28T09:06:41;95745.38;;;13.34;100.00
740;BME280;354;42.694;23.336;2024-02-28T09:09:07;95744.16;;;13.36;100.00
740;BME280;354;42.694;23.336;2024-02-28T09:11:32;95749.34;;;13.25;100.00
740;BME280;354;42.694;23.336;2024-02-28T09:13:58;95720.38;;;13.05;100.00
740;BME280;354;42.694;23.336;2024-02-28T09:16:24;95753.88;;;13.42;100.00
740;BME280;354;42.694;23.336;2024-02-28T09:18:49;95759.09;;;13.49;100.00
740;BME280;354;42.694;23.336;2024-02-28T09:21:15;95764.00;;;13.70;100.00
740;BME280;354;42.694;23.336;2024-02-28T09:23:40;95752.78;;;13.93;100.00
740;BME280;354;42.694;23.336;2024-02-28T09:26:06;95763.84;;;14.09;100.00
740;BME280;354;42.694;23.336;2024-02-28T09:28:32;95747.59;;;14.23;100.00
740;BME280;354;42.694;23.336;2024-02-28T09:30:57;95745.31;;;14.45;100.00
740;BME280;354;42.694;23.336;2024-02-28T09:33:23;95735.94;;;14.80;100.00
740;BME280;354;42.694;23.336;2024-02-28T09:35:48;95725.78;;;15.07;100.00
740;BME280;354;42.694;23.336;2024-02-28T09:38:14;95728.88;;;15.15;100.00
740;BME280;354;42.694;23.336;2024-02-28T09:40:40;95718.94;;;15.52;100.00
740;BME280;354;42.694;23.336;2024-02-28T09:43:06;95720.41;;;15.60;100.00
740;BME280;354;42.694;23.336;2024-02-28T09:45:36;95722.31;;;15.71;100.00
740;BME280;354;42.694;23.336;2024-02-28T09:48:02;95718.84;;;15.94;100.00
740;BME280;354;42.694;23.336;2024-02-28T09:50:28;95726.19;;;16.04;98.73
740;BME280;354;42.694;23.336;2024-02-28T09:52:54;95721.78;;;16.33;98.18
740;BME280;354;42.694;23.336;2024-02-28T09:55:20;95680.72;;;16.52;95.37
740;BME280;354;42.694;23.336;2024-02-28T09:57:47;95712.78;;;16.63;96.17
740;BME280;354;42.694;23.336;2024-02-28T10:00:16;95707.66;;;16.44;97.02
740;BME280;354;42.694;23.336;2024-02-28T10:02:44;95712.91;;;16.27;98.18
740;BME280;354;42.694;23.336;2024-02-28T10:05:11;95696.66;;;16.12;98.46
740;BME280;354;42.694;23.336;2024-02-28T10:07:37;95702.22;;;16.51;97.25
740;BME280;354;42.694;23.336;2024-02-28T10:10:02;95705.53;;;16.86;94.46
740;BME280;354;42.694;23.336;2024-02-28T10:12:29;95710.03;;;16.98;91.37
740;BME280;354;42.694;23.336;2024-02-28T10:14:54;95702.69;;;17.05;89.84
740;BME280;354;42.694;23.336;2024-02-28T10:17:19;95708.66;;;17.12;88.75
740;BME280;354;42.694;23.336;2024-02-28T10:19:45;95700.94;;;17.27;87.23
740;BME280;354;42.694;23.336;2024-02-28T10:22:10;95698.66;;;17.19;86.37
740;BME280;354;42.694;23.336;2024-02-28T10:24:36;95691.13;;;17.45;85.13
740;BME280;354;42.694;23.336;2024-02-28T10:27:03;95698.59;;;17.64;84.75
740;BME280;354;42.694;23.336;2024-02-28T10:29:29;95690.88;;;18.02;81.49
740;BME280;354;42.694;23.336;2024-02-28T10:31:58;95682.97;;;18.29;78.63
740;BME280;354;42.694;23.336;2024-02-28T10:34:24;95672.13;;;18.57;76.72
740;BME280;354;42.694;23.336;2024-02-28T10:36:49;95675.75;;;18.46;74.21
740;BME280;354;42.694;23.336;2024-02-28T10:39:15;95675.78;;;18.73;73.61
740;BME280;354;42.694;23.336;2024-02-28T10:41:41;95655.59;;;19.09;72.57
740;BME280;354;42.694;23.336;2024-02-28T10:44:08;95666.31;;;19.52;70.53
740;BME280;354;42.694;23.336;2024-02-28T10:46:34;95657.38;;;19.63;68.57
740;BME280;354;42.694;23.336;2024-02-28T10:49:00;95671.88;;;19.82;65.68
740;BME280;354;42.694;23.336;2024-02-28T10:51:26;95666.31;;;19.52;66.52
740;BME280;354;42.694;23.336;2024-02-28T10:54:15;95663.69;;;19.19;68.25
740;BME280;354;42.694;23.336;2024-02-28T10:56:41;95655.59;;;19.09;68.77
740;BME280;354;42.694;23.336;2024-02-28T10:59:08;95656.31;;;19.00;67.34
740;BME280;354;42.694;23.336;2024-02-28T11:01:39;95649.28;;;18.39;70.52
740;BME280;354;42.694;23.336;2024-02-28T11:04:07;95655.81;;;18.27;70.92
740;BME280;354;42.694;23.336;2024-02-28T11:06:33;95654.47;;;18.07;73.15
740;BME280;354;42.694;23.336;2024-02-28T11:09:00;95644.53;;;17.76;71.65
740;BME280;354;42.694;23.336;2024-02-28T11:11:30;95640.25;;;17.41;74.15
740;BME280;354;42.694;23.336;2024-02-28T11:13:57;95643.97;;;17.06;77.23
740;BME280;354;42.694;23.336;2024-02-28T11:16:33;95636.34;;;16.93;78.02
740;BME280;354;42.694;23.336;2024-02-28T11:19:00;95637.78;;;17.01;81.91
740;BME280;354;42.694;23.336;2024-02-28T11:21:27;95627.78;;;17.25;80.57
740;BME280;354;42.694;23.336;2024-02-28T11:23:58;95630.69;;;17.23;79.10
740;BME280;354;42.694;23.336;2024-02-28T11:26:24;95614.47;;;17.25;79.26
740;BME280;354;42.694;23.336;2024-02-28T11:28:50;95616.44;;;16.96;80.21
740;BME280;354;42.694;23.336;2024-02-28T11:31:16;95613.53;;;16.97;82.29
740;BME280;354;42.694;23.336;2024-02-28T11:33:41;95596.06;;;17.01;78.92
740;BME280;354;42.694;23.336;2024-02-28T11:36:07;95608.34;;;17.41;78.93
740;BME280;354;42.694;23.336;2024-02-28T11:38:35;95613.69;;;17.63;76.48
740;BME280;354;42.694;23.336;2024-02-28T11:41:03;95596.00;;;17.52;74.20
740;BME280;354;42.694;23.336;2024-02-28T11:43:33;95609.78;;;17.49;75.54
740;BME280;354;42.694;23.336;2024-02-28T11:46:08;95596.63;;;17.20;75.51
740;BME280;354;42.694;23.336;2024-02-28T11:48:34;95594.44;;;17.00;77.88
740;BME280;354;42.694;23.336;2024-02-28T11:50:59;95596.47;;;16.76;79.44
740;BME280;354;42.694;23.336;2024-02-28T11:53:25;95598.97;;;16.83;81.06
740;BME280;354;42.694;23.336;2024-02-28T11:55:52;95597.75;;;16.74;81.99
740;BME280;354;42.694;23.336;2024-02-28T11:58:17;95591.53;;;16.85;82.42
740;BME280;354;42.694;23.336;2024-02-28T12:00:47;95584.47;;;16.91;80.98
740;BME280;354;42.694;23.336;2024-02-28T12:03:13;95593.94;;;16.86;78.02
740;BME280;354;42.694;23.336;2024-02-28T12:05:42;95592.13;;;16.87;79.07
740;BME280;354;42.694;23.336;2024-02-28T12:08:08;95587.69;;;16.93;76.08
740;BME280;354;42.694;23.336;2024-02-28T12:10:35;95570.53;;;16.83;78.48
740;BME280;354;42.694;23.336;2024-02-28T12:13:00;95586.72;;;16.82;78.23
740;BME280;354;42.694;23.336;2024-02-28T12:15:29;95575.53;;;16.80;76.73
740;BME280;354;42.694;23.336;2024-02-28T12:17:54;95572.56;;;16.76;76.12
740;BME280;354;42.694;23.336;2024-02-28T12:20:20;95574.63;;;16.74;74.99
740;BME280;354;42.694;23.336;2024-02-28T12:22:45;95567.34;;;16.81;76.03
740;BME280;354;42.694;23.336;2024-02-28T12:25:11;95568.84;;;16.94;75.31
740;BME280;354;42.694;23.336;2024-02-28T12:27:36;95554.03;;;16.98;73.98
740;BME280;354;42.694;23.336;2024-02-28T12:30:02;95540.09;;;16.91;74.19
740;BME280;354;42.694;23.336;2024-02-28T12:32:27;95521.03;;;16.77;72.32
740;BME280;354;42.694;23.336;2024-02-28T12:34:52;95556.03;;;17.08;74.40
740;BME280;354;42.694;23.336;2024-02-28T12:37:19;95550.69;;;17.25;75.31
740;BME280;354;42.694;23.336;2024-02-28T12:39:44;95556.03;;;17.47;76.54
740;BME280;354;42.694;23.336;2024-02-28T12:42:10;95553.88;;;17.44;76.19
740;BME280;354;42.694;23.336;2024-02-28T12:44:35;95555.22;;;17.46;76.13
740;BME280;354;42.694;23.336;2024-02-28T12:47:01;95549.44;;;17.49;76.54
740;BME280;354;42.694;23.336;2024-02-28T12:49:27;95555.22;;;17.46;77.26
740;BME280;354;42.694;23.336;2024-02-28T12:51:52;95536.31;;;17.43;76.86
740;BME280;354;42.694;23.336;2024-02-28T12:54:18;95550.22;;;17.50;77.83
740;BME280;354;42.694;23.336;2024-02-28T12:56:46;95544.44;;;17.53;77.66
740;BME280;354;42.694;23.336;2024-02-28T12:59:12;95544.00;;;17.61;75.83
740;BME280;354;42.694;23.336;2024-02-28T13:01:38;95523.09;;;17.48;75.41
740;BME280;354;42.694;23.336;2024-02-28T13:04:04;95539.06;;;17.70;76.84
740;BME280;354;42.694;23.336;2024-02-28T13:06:29;95543.09;;;17.72;74.36
740;BME280;354;42.694;23.336;2024-02-28T13:08:55;95543.22;;;17.82;74.07
740;BME280;354;42.694;23.336;2024-02-28T13:11:22;95541.22;;;17.95;73.95
740;BME280;354;42.694;23.336;2024-02-28T13:13:48;95549.31;;;18.05;74.07
740;BME280;354;42.694;23.336;2024-02-28T13:16:18;95550.59;;;18.24;72.66
740;BME280;354;42.694;23.336;2024-02-28T13:18:44;95553.00;;;18.26;73.58
740;BME280;354;42.694;23.336;2024-02-28T13:21:10;95544.38;;;18.40;71.95
740;BME280;354;42.694;23.336;2024-02-28T13:23:36;95551.69;;;18.55;71.00